Aérodrome :
LOGIN :

S'inscrire | Disclaimer

   EN    FR    IT 

 










Légende :    VFR   VFR Marginal   IFR   IFR Intensif   IFR Très Intensif
Visi : 
Plafond : 
>= 8 km
>= 3000ft
5 à 8 km
1000 à 3000 ft
1500m à 5 km
500 à 1000 ft
800 à 1500m
200 à 500 ft
< 800m
< 200 ft
Symboles :   Orages  Brouillard  Fortes neiges  Fortes précipitations  Vent > 20 kt
SIGMETs :   Divers  Orages  Givrage  Turbulence  Onde Orograph.  Cendres Volcan.







- Altitude de l'aérodrome : 2776 ft
- Code IATA : VLL


LEVD - Valladolid

DERNIER METAR :
  • 251530Z 07005KT 030V120 CAVOK 31/12 Q1017

METARs EXPIRÉS :
  • 251500Z 06004KT 020V110 CAVOK 31/11 Q1017
  • 251430Z 07005KT 010V120 CAVOK 31/12 Q1018
  • 251400Z 09005KT 040V160 CAVOK 31/10 Q1018
  • 251330Z 09005KT 020V150 CAVOK 30/11 Q1018
  • 251300Z 08005KT 050V120 CAVOK 30/11 Q1018
  • 251230Z 08006KT 050V120 CAVOK 30/10 Q1018

TAF TAF LEVD
Valide du 25 à 12h jusqu'au 26 à 12h UTC


251100Z 2512/2612 VRB05KT CAVOK TX31/2516Z TN15/2605Z
TEMPO 2514/2521 27010KT
TEMPO 2514/2519 FEW040TCU
PROB30
TEMPO 2515/2519 VRB15G25KT 3000 TS SHRA SCT040CB
Pas de NOTAMs connus pour ce terrain.



MET'MAP, la Météo Aéronautique d'un coup d'oeil ! - Copyright ORBIFLY Décembre 2007 - Disclaimer

ORBIFLY MET'MAP TEAM :

Programmation & Développement : Alexandra Zaïnal
Conception & Développement : Baudouin d'Aumeries
Co-Programmation & Développement : Marc-Olivier Méhu
Soutien technique & logistique : Manuel Goepfert

Contact : metmap@orbifly.com




SOURCES & CREDITS :

   NOAA